sensor_id;sensor_type;location;lat;lon;timestamp;P1;durP1;ratioP1;P2;durP2;ratioP2
61899;SDS011;47853;55.890;37.664;2022-12-11T00:00:23;15.32;;;7.75;;
61899;SDS011;47853;55.890;37.664;2022-12-11T00:02:48;9.93;;;6.72;;
61899;SDS011;47853;55.890;37.664;2022-12-11T00:05:13;12.13;;;6.80;;
61899;SDS011;47853;55.890;37.664;2022-12-11T00:07:39;11.57;;;7.03;;
61899;SDS011;47853;55.890;37.664;2022-12-11T00:10:07;10.95;;;7.32;;
61899;SDS011;47853;55.890;37.664;2022-12-11T00:12:32;10.02;;;6.82;;
61899;SDS011;47853;55.890;37.664;2022-12-11T00:14:58;10.23;;;6.88;;
61899;SDS011;47853;55.890;37.664;2022-12-11T00:17:23;11.30;;;5.93;;
61899;SDS011;47853;55.890;37.664;2022-12-11T00:19:49;8.32;;;5.47;;
61899;SDS011;47853;55.890;37.664;2022-12-11T00:22:14;7.30;;;5.50;;
61899;SDS011;47853;55.890;37.664;2022-12-11T00:24:40;8.52;;;6.40;;
61899;SDS011;47853;55.890;37.664;2022-12-11T00:27:06;11.13;;;5.90;;
61899;SDS011;47853;55.890;37.664;2022-12-11T00:29:31;9.75;;;5.35;;
61899;SDS011;47853;55.890;37.664;2022-12-11T00:31:56;6.82;;;4.72;;
61899;SDS011;47853;55.890;37.664;2022-12-11T00:34:22;7.45;;;5.00;;
61899;SDS011;47853;55.890;37.664;2022-12-11T00:36:50;9.32;;;4.80;;
61899;SDS011;47853;55.890;37.664;2022-12-11T00:39:15;6.75;;;5.20;;
61899;SDS011;47853;55.890;37.664;2022-12-11T00:41:40;8.00;;;5.25;;
61899;SDS011;47853;55.890;37.664;2022-12-11T00:44:06;7.90;;;4.88;;
61899;SDS011;47853;55.890;37.664;2022-12-11T00:46:31;6.75;;;4.93;;
61899;SDS011;47853;55.890;37.664;2022-12-11T00:48:57;9.95;;;5.30;;
61899;SDS011;47853;55.890;37.664;2022-12-11T00:51:22;6.20;;;5.13;;
61899;SDS011;47853;55.890;37.664;2022-12-11T00:53:47;9.50;;;5.38;;
61899;SDS011;47853;55.890;37.664;2022-12-11T00:56:14;6.43;;;4.10;;
61899;SDS011;47853;55.890;37.664;2022-12-11T00:58:40;9.88;;;4.60;;
61899;SDS011;47853;55.890;37.664;2022-12-11T01:01:09;7.05;;;4.82;;
61899;SDS011;47853;55.890;37.664;2022-12-11T01:03:40;7.82;;;5.55;;
61899;SDS011;47853;55.890;37.664;2022-12-11T01:06:06;6.57;;;5.22;;
61899;SDS011;47853;55.890;37.664;2022-12-11T01:08:31;8.68;;;5.20;;
61899;SDS011;47853;55.890;37.664;2022-12-11T01:11:04;7.70;;;5.38;;
61899;SDS011;47853;55.890;37.664;2022-12-11T01:16:09;8.50;;;4.80;;
61899;SDS011;47853;55.890;37.664;2022-12-11T01:18:39;7.90;;;5.35;;
61899;SDS011;47853;55.890;37.664;2022-12-11T01:21:07;4.25;;;3.83;;
61899;SDS011;47853;55.890;37.664;2022-12-11T01:23:35;8.10;;;5.50;;
61899;SDS011;47853;55.890;37.664;2022-12-11T01:26:19;9.50;;;4.38;;
61899;SDS011;47853;55.890;37.664;2022-12-11T01:28:47;7.53;;;4.68;;
61899;SDS011;47853;55.890;37.664;2022-12-11T01:31:14;8.13;;;5.65;;
61899;SDS011;47853;55.890;37.664;2022-12-11T01:33:43;9.02;;;5.35;;
61899;SDS011;47853;55.890;37.664;2022-12-11T01:36:14;9.63;;;5.68;;
61899;SDS011;47853;55.890;37.664;2022-12-11T01:38:44;6.93;;;5.78;;
61899;SDS011;47853;55.890;37.664;2022-12-11T01:41:10;7.43;;;5.57;;
61899;SDS011;47853;55.890;37.664;2022-12-11T01:43:57;7.10;;;4.97;;
61899;SDS011;47853;55.890;37.664;2022-12-11T01:46:30;8.60;;;5.10;;
61899;SDS011;47853;55.890;37.664;2022-12-11T01:48:57;8.82;;;5.35;;
61899;SDS011;47853;55.890;37.664;2022-12-11T01:51:24;8.50;;;5.32;;
61899;SDS011;47853;55.890;37.664;2022-12-11T01:53:56;8.13;;;6.00;;
61899;SDS011;47853;55.890;37.664;2022-12-11T01:56:25;9.77;;;6.93;;
61899;SDS011;47853;55.890;37.664;2022-12-11T01:58:55;8.25;;;5.53;;
61899;SDS011;47853;55.890;37.664;2022-12-11T02:01:40;8.98;;;6.50;;
61899;SDS011;47853;55.890;37.664;2022-12-11T02:04:09;10.00;;;6.70;;
61899;SDS011;47853;55.890;37.664;2022-12-11T02:06:40;16.17;;;7.18;;
61899;SDS011;47853;55.890;37.664;2022-12-11T02:09:14;8.68;;;6.25;;
61899;SDS011;47853;55.890;37.664;2022-12-11T02:28:16;9.88;;;6.43;;
61899;SDS011;47853;55.890;37.664;2022-12-11T02:30:50;12.85;;;6.30;;
61899;SDS011;47853;55.890;37.664;2022-12-11T02:33:22;8.77;;;6.50;;
61899;SDS011;47853;55.890;37.664;2022-12-11T02:35:52;9.30;;;6.53;;
61899;SDS011;47853;55.890;37.664;2022-12-11T02:38:23;8.60;;;5.70;;
61899;SDS011;47853;55.890;37.664;2022-12-11T03:35:16;17.38;;;7.57;;
61899;SDS011;47853;55.890;37.664;2022-12-11T03:38:10;21.42;;;9.48;;
61899;SDS011;47853;55.890;37.664;2022-12-11T03:40:42;16.90;;;8.55;;
61899;SDS011;47853;55.890;37.664;2022-12-11T03:49:45;18.17;;;8.45;;
61899;SDS011;47853;55.890;37.664;2022-12-11T04:01:40;24.85;;;8.63;;
61899;SDS011;47853;55.890;37.664;2022-12-11T04:07:07;18.40;;;9.85;;
61899;SDS011;47853;55.890;37.664;2022-12-11T08:20:50;16.58;;;11.25;;
61899;SDS011;47853;55.890;37.664;2022-12-11T08:36:08;16.27;;;10.32;;
61899;SDS011;47853;55.890;37.664;2022-12-11T08:51:52;23.17;;;12.73;;
61899;SDS011;47853;55.890;37.664;2022-12-11T08:54:38;36.85;;;21.48;;
61899;SDS011;47853;55.890;37.664;2022-12-11T08:57:03;19.00;;;13.02;;
61899;SDS011;47853;55.890;37.664;2022-12-11T08:59:32;22.40;;;11.70;;
61899;SDS011;47853;55.890;37.664;2022-12-11T09:01:57;16.15;;;10.80;;
61899;SDS011;47853;55.890;37.664;2022-12-11T09:04:23;15.27;;;9.98;;
61899;SDS011;47853;55.890;37.664;2022-12-11T09:06:51;18.60;;;11.75;;
61899;SDS011;47853;55.890;37.664;2022-12-11T09:09:32;17.35;;;12.05;;
61899;SDS011;47853;55.890;37.664;2022-12-11T09:12:17;21.73;;;12.07;;
61899;SDS011;47853;55.890;37.664;2022-12-11T09:17:38;18.48;;;12.15;;
61899;SDS011;47853;55.890;37.664;2022-12-11T09:20:03;18.77;;;11.80;;
61899;SDS011;47853;55.890;37.664;2022-12-11T09:22:34;30.48;;;16.38;;
61899;SDS011;47853;55.890;37.664;2022-12-11T09:28:06;22.40;;;13.18;;
61899;SDS011;47853;55.890;37.664;2022-12-11T09:30:37;21.48;;;12.82;;
61899;SDS011;47853;55.890;37.664;2022-12-11T09:46:14;23.58;;;13.13;;
61899;SDS011;47853;55.890;37.664;2022-12-11T09:52:00;21.83;;;11.50;;
61899;SDS011;47853;55.890;37.664;2022-12-11T10:06:47;16.65;;;9.88;;
61899;SDS011;47853;55.890;37.664;2022-12-11T10:18:53;13.10;;;9.80;;
61899;SDS011;47853;55.890;37.664;2022-12-11T10:30:36;17.67;;;10.73;;
61899;SDS011;47853;55.890;37.664;2022-12-11T10:33:35;23.30;;;11.55;;
61899;SDS011;47853;55.890;37.664;2022-12-11T11:00:39;23.20;;;14.13;;
61899;SDS011;47853;55.890;37.664;2022-12-11T11:53:57;17.92;;;10.57;;
61899;SDS011;47853;55.890;37.664;2022-12-11T11:56:32;16.83;;;9.60;;
61899;SDS011;47853;55.890;37.664;2022-12-11T11:59:02;14.85;;;9.00;;
61899;SDS011;47853;55.890;37.664;2022-12-11T12:04:40;19.23;;;11.98;;
61899;SDS011;47853;55.890;37.664;2022-12-11T12:15:25;16.55;;;8.30;;
61899;SDS011;47853;55.890;37.664;2022-12-11T12:27:18;14.45;;;9.10;;
61899;SDS011;47853;55.890;37.664;2022-12-11T12:32:29;16.25;;;9.57;;
61899;SDS011;47853;55.890;37.664;2022-12-11T12:35:26;18.95;;;9.55;;
61899;SDS011;47853;55.890;37.664;2022-12-11T12:38:27;18.08;;;10.10;;
61899;SDS011;47853;55.890;37.664;2022-12-11T12:46:41;22.95;;;10.02;;
61899;SDS011;47853;55.890;37.664;2022-12-11T12:52:01;21.27;;;9.75;;
61899;SDS011;47853;55.890;37.664;2022-12-11T12:54:27;17.92;;;9.40;;
61899;SDS011;47853;55.890;37.664;2022-12-11T12:56:58;17.58;;;10.40;;
61899;SDS011;47853;55.890;37.664;2022-12-11T12:59:26;17.33;;;9.48;;
61899;SDS011;47853;55.890;37.664;2022-12-11T13:01:56;18.65;;;9.75;;
61899;SDS011;47853;55.890;37.664;2022-12-11T13:04:36;14.82;;;8.77;;
61899;SDS011;47853;55.890;37.664;2022-12-11T13:07:15;18.20;;;9.60;;
61899;SDS011;47853;55.890;37.664;2022-12-11T13:09:55;17.00;;;10.25;;
61899;SDS011;47853;55.890;37.664;2022-12-11T13:12:45;14.10;;;9.52;;
61899;SDS011;47853;55.890;37.664;2022-12-11T13:18:01;16.27;;;9.50;;
61899;SDS011;47853;55.890;37.664;2022-12-11T13:20:32;15.32;;;10.18;;
61899;SDS011;47853;55.890;37.664;2022-12-11T13:25:30;15.35;;;9.27;;
61899;SDS011;47853;55.890;37.664;2022-12-11T13:28:19;13.48;;;8.30;;
61899;SDS011;47853;55.890;37.664;2022-12-11T13:33:23;20.60;;;11.73;;
61899;SDS011;47853;55.890;37.664;2022-12-11T13:36:00;13.48;;;9.52;;
61899;SDS011;47853;55.890;37.664;2022-12-11T13:39:07;12.70;;;8.40;;
61899;SDS011;47853;55.890;37.664;2022-12-11T13:42:01;12.98;;;8.57;;
61899;SDS011;47853;55.890;37.664;2022-12-11T13:44:30;15.75;;;9.90;;
61899;SDS011;47853;55.890;37.664;2022-12-11T13:46:59;12.27;;;9.48;;
61899;SDS011;47853;55.890;37.664;2022-12-11T13:49:28;13.98;;;8.75;;
61899;SDS011;47853;55.890;37.664;2022-12-11T13:51:59;16.00;;;9.43;;
61899;SDS011;47853;55.890;37.664;2022-12-11T13:57:26;11.90;;;8.98;;
61899;SDS011;47853;55.890;37.664;2022-12-11T13:59:53;14.25;;;8.65;;
61899;SDS011;47853;55.890;37.664;2022-12-11T14:02:33;14.40;;;9.07;;
61899;SDS011;47853;55.890;37.664;2022-12-11T14:05:03;11.63;;;8.98;;
61899;SDS011;47853;55.890;37.664;2022-12-11T14:07:39;13.25;;;9.10;;
61899;SDS011;47853;55.890;37.664;2022-12-11T14:10:08;13.18;;;8.95;;
61899;SDS011;47853;55.890;37.664;2022-12-11T14:12:40;16.25;;;9.98;;
61899;SDS011;47853;55.890;37.664;2022-12-11T14:15:16;17.23;;;9.98;;
61899;SDS011;47853;55.890;37.664;2022-12-11T14:17:42;17.60;;;10.02;;
61899;SDS011;47853;55.890;37.664;2022-12-11T14:23:06;12.75;;;9.35;;
61899;SDS011;47853;55.890;37.664;2022-12-11T14:25:41;15.77;;;9.82;;
61899;SDS011;47853;55.890;37.664;2022-12-11T14:28:14;16.52;;;9.40;;
61899;SDS011;47853;55.890;37.664;2022-12-11T14:30:46;15.65;;;9.68;;
61899;SDS011;47853;55.890;37.664;2022-12-11T14:33:15;14.98;;;9.65;;
61899;SDS011;47853;55.890;37.664;2022-12-11T14:35:41;13.02;;;9.40;;
61899;SDS011;47853;55.890;37.664;2022-12-11T14:38:13;15.05;;;9.38;;
61899;SDS011;47853;55.890;37.664;2022-12-11T14:40:44;14.35;;;7.97;;
61899;SDS011;47853;55.890;37.664;2022-12-11T14:46:10;14.82;;;8.57;;
61899;SDS011;47853;55.890;37.664;2022-12-11T14:48:43;12.52;;;7.97;;
61899;SDS011;47853;55.890;37.664;2022-12-11T14:51:32;10.07;;;7.20;;
61899;SDS011;47853;55.890;37.664;2022-12-11T14:54:04;13.13;;;8.23;;
61899;SDS011;47853;55.890;37.664;2022-12-11T14:56:37;12.57;;;8.10;;
61899;SDS011;47853;55.890;37.664;2022-12-11T14:59:26;13.40;;;8.17;;
61899;SDS011;47853;55.890;37.664;2022-12-11T15:01:56;10.70;;;7.85;;
61899;SDS011;47853;55.890;37.664;2022-12-11T15:04:44;9.55;;;7.10;;
61899;SDS011;47853;55.890;37.664;2022-12-11T15:07:36;13.73;;;8.13;;
61899;SDS011;47853;55.890;37.664;2022-12-11T15:10:05;11.95;;;7.53;;
61899;SDS011;47853;55.890;37.664;2022-12-11T15:12:49;12.70;;;8.43;;
61899;SDS011;47853;55.890;37.664;2022-12-11T15:18:35;13.80;;;8.27;;
61899;SDS011;47853;55.890;37.664;2022-12-11T15:21:06;13.15;;;8.40;;
61899;SDS011;47853;55.890;37.664;2022-12-11T15:26:42;21.13;;;9.02;;
61899;SDS011;47853;55.890;37.664;2022-12-11T15:29:25;12.05;;;8.10;;
61899;SDS011;47853;55.890;37.664;2022-12-11T15:32:20;12.50;;;7.63;;
61899;SDS011;47853;55.890;37.664;2022-12-11T15:34:49;11.70;;;8.13;;
61899;SDS011;47853;55.890;37.664;2022-12-11T15:39:48;13.05;;;8.25;;
61899;SDS011;47853;55.890;37.664;2022-12-11T15:42:36;9.98;;;7.90;;
61899;SDS011;47853;55.890;37.664;2022-12-11T15:45:36;21.75;;;14.43;;
61899;SDS011;47853;55.890;37.664;2022-12-11T15:48:04;13.82;;;8.05;;
61899;SDS011;47853;55.890;37.664;2022-12-11T15:50:30;11.95;;;8.00;;
61899;SDS011;47853;55.890;37.664;2022-12-11T15:52:55;11.45;;;7.50;;
61899;SDS011;47853;55.890;37.664;2022-12-11T15:55:22;18.55;;;7.85;;
61899;SDS011;47853;55.890;37.664;2022-12-11T15:57:55;21.92;;;8.93;;
61899;SDS011;47853;55.890;37.664;2022-12-11T16:00:23;15.48;;;8.40;;
61899;SDS011;47853;55.890;37.664;2022-12-11T16:02:49;14.82;;;8.90;;
61899;SDS011;47853;55.890;37.664;2022-12-11T16:05:17;14.73;;;8.48;;
61899;SDS011;47853;55.890;37.664;2022-12-11T16:07:46;11.52;;;6.68;;
61899;SDS011;47853;55.890;37.664;2022-12-11T16:10:13;12.27;;;7.25;;
61899;SDS011;47853;55.890;37.664;2022-12-11T16:12:42;11.25;;;7.60;;
61899;SDS011;47853;55.890;37.664;2022-12-11T16:15:09;14.65;;;7.32;;
61899;SDS011;47853;55.890;37.664;2022-12-11T16:17:35;13.10;;;9.10;;
61899;SDS011;47853;55.890;37.664;2022-12-11T16:20:01;11.63;;;7.50;;
61899;SDS011;47853;55.890;37.664;2022-12-11T16:22:26;11.35;;;7.32;;
61899;SDS011;47853;55.890;37.664;2022-12-11T16:24:54;14.05;;;7.97;;
61899;SDS011;47853;55.890;37.664;2022-12-11T16:27:20;11.82;;;6.35;;
61899;SDS011;47853;55.890;37.664;2022-12-11T16:29:46;14.13;;;6.75;;
61899;SDS011;47853;55.890;37.664;2022-12-11T16:37:48;11.48;;;7.65;;
61899;SDS011;47853;55.890;37.664;2022-12-11T16:40:28;17.40;;;6.63;;
61899;SDS011;47853;55.890;37.664;2022-12-11T16:42:53;12.82;;;8.15;;
61899;SDS011;47853;55.890;37.664;2022-12-11T16:45:22;10.70;;;6.78;;
61899;SDS011;47853;55.890;37.664;2022-12-11T16:47:49;10.20;;;7.03;;
61899;SDS011;47853;55.890;37.664;2022-12-11T16:50:14;14.82;;;7.20;;
61899;SDS011;47853;55.890;37.664;2022-12-11T16:52:40;9.88;;;6.53;;
61899;SDS011;47853;55.890;37.664;2022-12-11T16:55:07;10.13;;;6.20;;
61899;SDS011;47853;55.890;37.664;2022-12-11T16:57:33;11.38;;;7.30;;
61899;SDS011;47853;55.890;37.664;2022-12-11T16:59:59;13.75;;;8.63;;
61899;SDS011;47853;55.890;37.664;2022-12-11T17:02:27;13.77;;;7.70;;
61899;SDS011;47853;55.890;37.664;2022-12-11T17:04:55;12.50;;;6.57;;
61899;SDS011;47853;55.890;37.664;2022-12-11T17:07:20;17.45;;;6.53;;
61899;SDS011;47853;55.890;37.664;2022-12-11T17:09:46;7.40;;;6.05;;
61899;SDS011;47853;55.890;37.664;2022-12-11T17:12:11;8.52;;;6.45;;
61899;SDS011;47853;55.890;37.664;2022-12-11T17:14:37;16.60;;;8.13;;
61899;SDS011;47853;55.890;37.664;2022-12-11T17:17:02;7.72;;;5.85;;
61899;SDS011;47853;55.890;37.664;2022-12-11T17:19:27;9.00;;;6.03;;
61899;SDS011;47853;55.890;37.664;2022-12-11T17:21:53;10.30;;;5.45;;
61899;SDS011;47853;55.890;37.664;2022-12-11T17:24:18;8.05;;;5.63;;
61899;SDS011;47853;55.890;37.664;2022-12-11T17:26:49;7.32;;;5.00;;
61899;SDS011;47853;55.890;37.664;2022-12-11T17:29:18;6.38;;;4.53;;
61899;SDS011;47853;55.890;37.664;2022-12-11T17:31:46;7.10;;;4.75;;
61899;SDS011;47853;55.890;37.664;2022-12-11T17:34:11;6.20;;;4.65;;
61899;SDS011;47853;55.890;37.664;2022-12-11T17:36:37;6.63;;;4.32;;
61899;SDS011;47853;55.890;37.664;2022-12-11T17:39:02;8.15;;;4.35;;
61899;SDS011;47853;55.890;37.664;2022-12-11T17:41:28;6.55;;;4.43;;
61899;SDS011;47853;55.890;37.664;2022-12-11T17:43:53;7.25;;;4.60;;
61899;SDS011;47853;55.890;37.664;2022-12-11T17:46:19;8.88;;;4.60;;
61899;SDS011;47853;55.890;37.664;2022-12-11T17:48:45;4.55;;;4.03;;
61899;SDS011;47853;55.890;37.664;2022-12-11T17:51:11;6.28;;;4.05;;
61899;SDS011;47853;55.890;37.664;2022-12-11T17:53:38;4.65;;;3.55;;
61899;SDS011;47853;55.890;37.664;2022-12-11T17:56:05;5.15;;;3.72;;
61899;SDS011;47853;55.890;37.664;2022-12-11T17:58:32;5.70;;;4.05;;
61899;SDS011;47853;55.890;37.664;2022-12-11T18:00:58;11.98;;;7.95;;
61899;SDS011;47853;55.890;37.664;2022-12-11T18:03:24;6.95;;;5.32;;
61899;SDS011;47853;55.890;37.664;2022-12-11T18:05:52;4.40;;;3.85;;
61899;SDS011;47853;55.890;37.664;2022-12-11T18:08:20;7.10;;;4.70;;
61899;SDS011;47853;55.890;37.664;2022-12-11T18:10:48;3.92;;;3.10;;
61899;SDS011;47853;55.890;37.664;2022-12-11T18:13:13;3.92;;;3.22;;
61899;SDS011;47853;55.890;37.664;2022-12-11T18:15:38;4.78;;;3.38;;
61899;SDS011;47853;55.890;37.664;2022-12-11T18:18:05;4.75;;;3.33;;
61899;SDS011;47853;55.890;37.664;2022-12-11T18:20:33;4.88;;;3.85;;
61899;SDS011;47853;55.890;37.664;2022-12-11T18:22:59;6.05;;;2.95;;
61899;SDS011;47853;55.890;37.664;2022-12-11T18:25:25;4.25;;;3.30;;
61899;SDS011;47853;55.890;37.664;2022-12-11T18:27:51;4.18;;;2.95;;
61899;SDS011;47853;55.890;37.664;2022-12-11T18:30:37;3.30;;;2.65;;
61899;SDS011;47853;55.890;37.664;2022-12-11T18:33:17;3.95;;;2.90;;
61899;SDS011;47853;55.890;37.664;2022-12-11T18:35:51;4.75;;;2.92;;
61899;SDS011;47853;55.890;37.664;2022-12-11T18:38:26;1.92;;;1.83;;
61899;SDS011;47853;55.890;37.664;2022-12-11T18:44:22;2.50;;;2.30;;
61899;SDS011;47853;55.890;37.664;2022-12-11T18:46:50;2.47;;;2.28;;
61899;SDS011;47853;55.890;37.664;2022-12-11T18:49:22;5.85;;;4.57;;
61899;SDS011;47853;55.890;37.664;2022-12-11T18:51:58;5.80;;;2.67;;
61899;SDS011;47853;55.890;37.664;2022-12-11T18:54:43;2.67;;;2.25;;
61899;SDS011;47853;55.890;37.664;2022-12-11T18:57:11;2.60;;;2.20;;
61899;SDS011;47853;55.890;37.664;2022-12-11T18:59:37;2.40;;;2.10;;
61899;SDS011;47853;55.890;37.664;2022-12-11T19:02:09;2.20;;;1.70;;
61899;SDS011;47853;55.890;37.664;2022-12-11T19:04:35;3.10;;;2.50;;
61899;SDS011;47853;55.890;37.664;2022-12-11T19:07:01;4.15;;;2.47;;
61899;SDS011;47853;55.890;37.664;2022-12-11T19:09:26;1.55;;;1.45;;
61899;SDS011;47853;55.890;37.664;2022-12-11T19:11:51;2.30;;;1.98;;
61899;SDS011;47853;55.890;37.664;2022-12-11T19:14:20;3.00;;;2.00;;
61899;SDS011;47853;55.890;37.664;2022-12-11T19:16:51;2.58;;;1.98;;
61899;SDS011;47853;55.890;37.664;2022-12-11T19:19:17;2.70;;;1.52;;
61899;SDS011;47853;55.890;37.664;2022-12-11T19:21:44;2.95;;;1.85;;
61899;SDS011;47853;55.890;37.664;2022-12-11T19:24:18;1.95;;;1.75;;
61899;SDS011;47853;55.890;37.664;2022-12-11T19:26:45;4.43;;;3.08;;
61899;SDS011;47853;55.890;37.664;2022-12-11T19:29:21;3.75;;;2.15;;
61899;SDS011;47853;55.890;37.664;2022-12-11T19:31:49;5.95;;;4.07;;
61899;SDS011;47853;55.890;37.664;2022-12-11T19:34:15;2.20;;;1.63;;
61899;SDS011;47853;55.890;37.664;2022-12-11T19:36:40;2.60;;;1.65;;
61899;SDS011;47853;55.890;37.664;2022-12-11T19:39:06;3.53;;;1.98;;
61899;SDS011;47853;55.890;37.664;2022-12-11T19:41:31;2.47;;;1.50;;
61899;SDS011;47853;55.890;37.664;2022-12-11T19:43:57;2.88;;;1.83;;
61899;SDS011;47853;55.890;37.664;2022-12-11T19:46:23;2.05;;;1.83;;
61899;SDS011;47853;55.890;37.664;2022-12-11T19:48:50;12.80;;;8.82;;
61899;SDS011;47853;55.890;37.664;2022-12-11T19:51:18;14.18;;;9.38;;
61899;SDS011;47853;55.890;37.664;2022-12-11T19:53:45;2.60;;;1.88;;
61899;SDS011;47853;55.890;37.664;2022-12-11T19:56:11;3.90;;;1.58;;
61899;SDS011;47853;55.890;37.664;2022-12-11T19:58:37;1.85;;;1.52;;
61899;SDS011;47853;55.890;37.664;2022-12-11T20:01:03;3.50;;;2.78;;
61899;SDS011;47853;55.890;37.664;2022-12-11T20:03:30;16.90;;;10.10;;
61899;SDS011;47853;55.890;37.664;2022-12-11T20:06:13;1.90;;;1.60;;
61899;SDS011;47853;55.890;37.664;2022-12-11T20:08:39;2.90;;;1.45;;
61899;SDS011;47853;55.890;37.664;2022-12-11T20:11:05;2.03;;;1.55;;
61899;SDS011;47853;55.890;37.664;2022-12-11T20:13:32;2.00;;;1.80;;
61899;SDS011;47853;55.890;37.664;2022-12-11T20:15:57;2.10;;;1.80;;
61899;SDS011;47853;55.890;37.664;2022-12-11T20:18:23;2.83;;;1.77;;
61899;SDS011;47853;55.890;37.664;2022-12-11T20:20:49;3.15;;;1.70;;
61899;SDS011;47853;55.890;37.664;2022-12-11T20:23:22;2.50;;;1.92;;
61899;SDS011;47853;55.890;37.664;2022-12-11T20:25:47;1.95;;;1.80;;
61899;SDS011;47853;55.890;37.664;2022-12-11T20:28:14;3.10;;;2.08;;
61899;SDS011;47853;55.890;37.664;2022-12-11T20:30:40;2.15;;;1.85;;
61899;SDS011;47853;55.890;37.664;2022-12-11T20:33:05;2.67;;;2.10;;
61899;SDS011;47853;55.890;37.664;2022-12-11T20:35:30;4.40;;;2.25;;
61899;SDS011;47853;55.890;37.664;2022-12-11T20:37:56;3.15;;;2.30;;
61899;SDS011;47853;55.890;37.664;2022-12-11T20:40:21;4.30;;;2.28;;
61899;SDS011;47853;55.890;37.664;2022-12-11T20:42:46;4.15;;;2.10;;
61899;SDS011;47853;55.890;37.664;2022-12-11T20:45:14;3.88;;;2.88;;
61899;SDS011;47853;55.890;37.664;2022-12-11T20:47:39;2.03;;;1.75;;
61899;SDS011;47853;55.890;37.664;2022-12-11T20:50:05;3.72;;;2.00;;
61899;SDS011;47853;55.890;37.664;2022-12-11T20:52:30;3.30;;;2.47;;
61899;SDS011;47853;55.890;37.664;2022-12-11T20:54:59;3.05;;;2.50;;
61899;SDS011;47853;55.890;37.664;2022-12-11T21:00:39;5.35;;;2.80;;
61899;SDS011;47853;55.890;37.664;2022-12-11T21:03:07;3.33;;;2.63;;
61899;SDS011;47853;55.890;37.664;2022-12-11T21:05:33;3.20;;;2.60;;
61899;SDS011;47853;55.890;37.664;2022-12-11T21:08:03;2.90;;;2.50;;
61899;SDS011;47853;55.890;37.664;2022-12-11T21:10:29;11.48;;;3.03;;
61899;SDS011;47853;55.890;37.664;2022-12-11T21:12:57;6.78;;;3.38;;
61899;SDS011;47853;55.890;37.664;2022-12-11T21:15:28;5.10;;;3.60;;
61899;SDS011;47853;55.890;37.664;2022-12-11T21:17:54;4.25;;;3.15;;
61899;SDS011;47853;55.890;37.664;2022-12-11T21:23:19;9.57;;;6.78;;
61899;SDS011;47853;55.890;37.664;2022-12-11T21:25:49;6.00;;;4.70;;
61899;SDS011;47853;55.890;37.664;2022-12-11T21:28:15;6.10;;;3.83;;
61899;SDS011;47853;55.890;37.664;2022-12-11T21:30:41;6.30;;;4.65;;
61899;SDS011;47853;55.890;37.664;2022-12-11T21:33:06;6.88;;;4.13;;
61899;SDS011;47853;55.890;37.664;2022-12-11T21:35:32;6.53;;;4.93;;
61899;SDS011;47853;55.890;37.664;2022-12-11T21:37:57;5.40;;;4.45;;
61899;SDS011;47853;55.890;37.664;2022-12-11T21:40:22;21.45;;;11.18;;
61899;SDS011;47853;55.890;37.664;2022-12-11T21:42:48;7.35;;;5.95;;
61899;SDS011;47853;55.890;37.664;2022-12-11T21:45:13;7.43;;;4.82;;
61899;SDS011;47853;55.890;37.664;2022-12-11T21:47:38;10.52;;;5.97;;
61899;SDS011;47853;55.890;37.664;2022-12-11T21:50:09;8.65;;;5.82;;
61899;SDS011;47853;55.890;37.664;2022-12-11T21:52:53;10.30;;;6.22;;
61899;SDS011;47853;55.890;37.664;2022-12-11T21:55:30;10.57;;;6.28;;
61899;SDS011;47853;55.890;37.664;2022-12-11T21:57:56;11.57;;;6.57;;
61899;SDS011;47853;55.890;37.664;2022-12-11T22:00:21;14.90;;;8.45;;
61899;SDS011;47853;55.890;37.664;2022-12-11T22:02:47;11.20;;;7.85;;
61899;SDS011;47853;55.890;37.664;2022-12-11T22:05:12;15.48;;;9.57;;
61899;SDS011;47853;55.890;37.664;2022-12-11T22:07:38;11.38;;;8.15;;
61899;SDS011;47853;55.890;37.664;2022-12-11T22:10:03;14.05;;;9.40;;
61899;SDS011;47853;55.890;37.664;2022-12-11T22:12:29;15.48;;;8.80;;
61899;SDS011;47853;55.890;37.664;2022-12-11T22:14:55;20.02;;;11.48;;
61899;SDS011;47853;55.890;37.664;2022-12-11T22:17:23;15.40;;;9.50;;
61899;SDS011;47853;55.890;37.664;2022-12-11T22:19:48;16.58;;;10.25;;
61899;SDS011;47853;55.890;37.664;2022-12-11T22:22:13;37.17;;;22.73;;
61899;SDS011;47853;55.890;37.664;2022-12-11T22:24:39;14.82;;;9.70;;
61899;SDS011;47853;55.890;37.664;2022-12-11T22:27:04;15.93;;;9.65;;
61899;SDS011;47853;55.890;37.664;2022-12-11T22:29:30;13.95;;;8.43;;
61899;SDS011;47853;55.890;37.664;2022-12-11T22:31:58;19.98;;;10.85;;
61899;SDS011;47853;55.890;37.664;2022-12-11T22:34:23;18.05;;;11.18;;
61899;SDS011;47853;55.890;37.664;2022-12-11T22:36:49;21.20;;;13.13;;
61899;SDS011;47853;55.890;37.664;2022-12-11T22:39:15;15.77;;;11.05;;
61899;SDS011;47853;55.890;37.664;2022-12-11T22:41:40;12.40;;;8.95;;
61899;SDS011;47853;55.890;37.664;2022-12-11T22:44:05;20.48;;;12.35;;
61899;SDS011;47853;55.890;37.664;2022-12-11T22:46:42;26.98;;;17.65;;
61899;SDS011;47853;55.890;37.664;2022-12-11T22:49:08;23.83;;;14.73;;
61899;SDS011;47853;55.890;37.664;2022-12-11T22:51:34;28.25;;;15.02;;
61899;SDS011;47853;55.890;37.664;2022-12-11T22:54:00;20.60;;;12.15;;
61899;SDS011;47853;55.890;37.664;2022-12-11T22:56:26;24.90;;;15.48;;
61899;SDS011;47853;55.890;37.664;2022-12-11T22:58:52;26.13;;;14.20;;
61899;SDS011;47853;55.890;37.664;2022-12-11T23:01:21;20.00;;;13.07;;
61899;SDS011;47853;55.890;37.664;2022-12-11T23:03:47;21.23;;;12.77;;
61899;SDS011;47853;55.890;37.664;2022-12-11T23:06:13;25.67;;;15.43;;
61899;SDS011;47853;55.890;37.664;2022-12-11T23:08:41;26.08;;;16.38;;
61899;SDS011;47853;55.890;37.664;2022-12-11T23:11:14;22.08;;;14.55;;
61899;SDS011;47853;55.890;37.664;2022-12-11T23:13:44;29.63;;;16.80;;
61899;SDS011;47853;55.890;37.664;2022-12-11T23:16:10;30.17;;;17.67;;
61899;SDS011;47853;55.890;37.664;2022-12-11T23:18:35;35.17;;;18.67;;
61899;SDS011;47853;55.890;37.664;2022-12-11T23:21:01;23.15;;;13.70;;
61899;SDS011;47853;55.890;37.664;2022-12-11T23:23:27;31.95;;;18.88;;
61899;SDS011;47853;55.890;37.664;2022-12-11T23:25:52;30.92;;;19.23;;
61899;SDS011;47853;55.890;37.664;2022-12-11T23:28:18;35.20;;;18.45;;
61899;SDS011;47853;55.890;37.664;2022-12-11T23:30:43;31.08;;;16.65;;
61899;SDS011;47853;55.890;37.664;2022-12-11T23:33:09;33.28;;;17.33;;
61899;SDS011;47853;55.890;37.664;2022-12-11T23:35:34;42.10;;;19.73;;
61899;SDS011;47853;55.890;37.664;2022-12-11T23:37:59;37.65;;;19.63;;
61899;SDS011;47853;55.890;37.664;2022-12-11T23:40:31;26.10;;;15.13;;
61899;SDS011;47853;55.890;37.664;2022-12-11T23:42:56;27.63;;;15.27;;
61899;SDS011;47853;55.890;37.664;2022-12-11T23:45:22;35.17;;;19.50;;
61899;SDS011;47853;55.890;37.664;2022-12-11T23:47:47;31.98;;;16.85;;
61899;SDS011;47853;55.890;37.664;2022-12-11T23:50:13;34.70;;;18.63;;
61899;SDS011;47853;55.890;37.664;2022-12-11T23:52:39;33.65;;;18.10;;
61899;SDS011;47853;55.890;37.664;2022-12-11T23:55:05;29.60;;;16.13;;
61899;SDS011;47853;55.890;37.664;2022-12-11T23:57:31;25.92;;;14.38;;
61899;SDS011;47853;55.890;37.664;2022-12-11T23:59:58;41.15;;;21.80;;
